Time;durP1;ratioP1;P1;durP2;ratioP2;P2;SDS_P1;SDS_P2;PMS_P1;PMS_P2;Temp;Humidity;BMP_temperature;BMP_pressure;BME280_temperature;BME280_humidity;BME280_pressure;Samples;Min_cycle;Max_cycle;Signal;HPM_P1;HPM_P2
2022/10/27 00:00:26;;;;;;;12.93;5.13;;;10.20;99.90;;;;;;5035129;28;20017;-84
2022/10/27 00:02:52;;;;;;;11.47;5.20;;;10.20;99.90;;;;;;5035022;28;20494;-84
2022/10/27 00:05:18;;;;;;;16.47;5.63;;;10.20;99.90;;;;;;5035144;28;20036;-85
2022/10/27 00:07:43;;;;;;;15.37;6.67;;;10.20;99.90;;;;;;5034728;28;20029;-84
2022/10/27 00:10:09;;;;;;;22.40;7.03;;;10.20;99.90;;;;;;5034757;28;20033;-84
2022/10/27 00:12:35;;;;;;;12.33;5.90;;;10.10;99.90;;;;;;5035101;28;20036;-84
2022/10/27 00:15:00;;;;;;;17.73;5.30;;;10.10;99.90;;;;;;5034579;28;20427;-84
2022/10/27 00:17:27;;;;;;;14.27;5.83;;;10.10;99.90;;;;;;5034724;28;20028;-84
2022/10/27 00:19:53;;;;;;;13.52;5.60;;;10.10;99.90;;;;;;5034611;28;20370;-84
2022/10/27 00:22:18;;;;;;;11.13;5.23;;;10.10;99.90;;;;;;5034624;28;20018;-84
2022/10/27 00:24:44;;;;;;;12.90;5.05;;;10.10;99.90;;;;;;5034830;28;20386;-84
2022/10/27 00:27:10;;;;;;;11.27;4.47;;;10.00;99.90;;;;;;5034443;28;20106;-84
2022/10/27 00:29:35;;;;;;;12.50;4.97;;;10.00;99.90;;;;;;5034698;28;20413;-84
2022/10/27 00:32:01;;;;;;;12.60;5.13;;;10.00;99.90;;;;;;5034327;28;20064;-84
2022/10/27 00:34:26;;;;;;;13.47;5.53;;;10.00;99.90;;;;;;5032854;28;20026;-84
2022/10/27 00:36:52;;;;;;;11.10;5.10;;;10.00;99.90;;;;;;5034479;28;20534;-84
2022/10/27 00:39:17;;;;;;;10.70;4.67;;;10.00;99.90;;;;;;5034289;28;20438;-84
2022/10/27 00:41:44;;;;;;;14.17;5.13;;;10.00;99.90;;;;;;5033979;28;20343;-84
2022/10/27 00:44:30;;;;;;;8.57;4.77;;;10.00;99.90;;;;;;5034139;28;20033;-89
2022/10/27 00:46:59;;;;;;;12.27;4.97;;;10.00;99.90;;;;;;5033953;28;20028;-88
2022/10/27 00:49:36;;;;;;;16.23;4.50;;;10.00;99.90;;;;;;5033876;28;20482;-89
2022/10/27 00:52:10;;;;;;;15.67;4.87;;;10.00;99.90;;;;;;5032769;28;20036;-89
2022/10/27 00:54:39;;;;;;;10.82;4.57;;;10.00;99.90;;;;;;5034015;28;20022;-88
2022/10/27 00:57:07;;;;;;;13.23;4.60;;;10.00;99.90;;;;;;5034461;28;20112;-89
2022/10/27 00:59:34;;;;;;;15.13;5.03;;;9.90;99.90;;;;;;5034136;28;20041;-89
2022/10/27 01:01:59;;;;;;;14.10;4.90;;;9.90;99.90;;;;;;5034154;28;20026;-89
2022/10/27 01:04:48;;;;;;;14.30;5.03;;;9.90;99.90;;;;;;5033801;28;20180;-89
2022/10/27 01:07:15;;;;;;;13.03;4.67;;;9.80;99.90;;;;;;5033760;28;20021;-89
2022/10/27 01:09:42;;;;;;;13.60;4.67;;;9.80;99.90;;;;;;5034549;28;20025;-89
2022/10/27 01:12:08;;;;;;;9.33;4.30;;;9.70;99.90;;;;;;5033717;28;20033;-88
2022/10/27 01:14:34;;;;;;;12.87;4.27;;;9.70;99.90;;;;;;5033908;28;20025;-89
2022/10/27 01:17:23;;;;;;;10.87;4.77;;;9.70;99.90;;;;;;5033367;28;20029;-89
2022/10/27 01:20:05;;;;;;;11.77;4.50;;;9.70;99.90;;;;;;5033380;28;20366;-88
2022/10/27 01:22:55;;;;;;;11.70;4.43;;;9.70;99.90;;;;;;5033182;28;20497;-89
2022/10/27 01:25:49;;;;;;;10.10;4.30;;;9.70;99.90;;;;;;5033226;28;20022;-88
2022/10/27 01:28:43;;;;;;;10.40;4.40;;;9.70;99.90;;;;;;5033287;28;20028;-88
2022/10/27 01:31:21;;;;;;;11.67;4.30;;;9.60;99.90;;;;;;5033050;28;20355;-88
2022/10/27 01:34:07;;;;;;;9.93;4.20;;;9.60;99.90;;;;;;5033063;28;20053;-88
2022/10/27 01:36:47;;;;;;;13.60;4.20;;;9.60;99.90;;;;;;5033026;28;20020;-88
2022/10/27 01:39:20;;;;;;;10.23;4.37;;;9.60;99.90;;;;;;5031969;28;20072;-88
2022/10/27 01:42:07;;;;;;;7.20;4.20;;;9.50;99.90;;;;;;5030864;28;20140;-88
2022/10/27 01:44:40;;;;;;;9.50;3.80;;;9.40;99.90;;;;;;5016609;28;20022;-89
2022/10/27 01:47:08;;;;;;;9.90;4.33;;;9.40;99.90;;;;;;5027535;28;20022;-88
2022/10/27 01:49:39;;;;;;;13.27;4.40;;;9.40;99.90;;;;;;5018667;28;20462;-89
2022/10/27 01:52:07;;;;;;;11.83;3.90;;;9.40;99.90;;;;;;5014970;28;20049;-88
2022/10/27 01:54:34;;;;;;;8.27;3.87;;;9.30;99.90;;;;;;5029876;28;20048;-89
2022/10/27 01:57:24;;;;;;;11.23;3.77;;;9.30;99.90;;;;;;5032492;28;20035;-88
2022/10/27 02:00:03;;;;;;;7.83;3.77;;;9.30;99.90;;;;;;5033043;28;20369;-84
2022/10/27 02:02:32;;;;;;;15.47;4.50;;;9.30;99.90;;;;;;5032724;28;20099;-84
2022/10/27 02:05:33;;;;;;;6.97;3.90;;;9.30;99.90;;;;;;5032524;28;20030;-84
2022/10/27 02:08:23;;;;;;;18.57;5.10;;;9.20;99.90;;;;;;5032692;28;20467;-84
2022/10/27 02:10:58;;;;;;;8.30;4.10;;;9.20;99.90;;;;;;5032633;28;20806;-84
2022/10/27 02:13:24;;;;;;;7.68;3.90;;;9.20;99.90;;;;;;5032598;28;20037;-84
2022/10/27 02:15:56;;;;;;;10.93;5.07;;;9.20;99.90;;;;;;5032502;28;20038;-84
2022/10/27 02:18:27;;;;;;;8.50;4.00;;;9.20;99.90;;;;;;5032602;28;20486;-84
2022/10/27 02:20:57;;;;;;;8.73;3.97;;;9.10;99.90;;;;;;5032495;28;20155;-84
2022/10/27 02:23:23;;;;;;;13.80;4.67;;;9.10;99.90;;;;;;5032410;28;20048;-84
2022/10/27 02:26:02;;;;;;;10.80;3.97;;;9.10;99.90;;;;;;5032607;28;20038;-84
2022/10/27 02:28:38;;;;;;;10.47;4.03;;;9.10;99.90;;;;;;5033120;28;20036;-85
2022/10/27 02:31:06;;;;;;;7.03;3.87;;;9.00;99.90;;;;;;5032584;28;20037;-85
2022/10/27 02:33:31;;;;;;;8.13;3.93;;;9.00;99.90;;;;;;5032613;28;20208;-85
2022/10/27 02:35:57;;;;;;;8.53;4.10;;;9.00;99.90;;;;;;5032949;28;20108;-85
2022/10/27 02:38:23;;;;;;;10.03;4.00;;;9.00;99.90;;;;;;5032876;28;20066;-85
2022/10/27 02:40:49;;;;;;;7.37;3.80;;;9.00;99.90;;;;;;5032574;28;20053;-85
2022/10/27 02:43:15;;;;;;;9.43;3.40;;;9.00;99.90;;;;;;5031356;28;20561;-85
2022/10/27 02:45:40;;;;;;;13.23;4.27;;;9.00;99.90;;;;;;5032700;28;20061;-85
2022/10/27 02:48:06;;;;;;;9.27;3.93;;;9.00;99.90;;;;;;5032738;28;20097;-85
2022/10/27 02:50:32;;;;;;;10.40;4.53;;;9.00;99.90;;;;;;5032583;28;20034;-85
2022/10/27 02:52:57;;;;;;;12.67;4.90;;;9.00;99.90;;;;;;5031165;28;20045;-85
2022/10/27 02:55:23;;;;;;;15.10;4.87;;;9.00;99.90;;;;;;5032961;28;20037;-85
2022/10/27 02:57:48;;;;;;;10.73;4.37;;;8.90;99.90;;;;;;5032419;28;20032;-85
2022/10/27 03:00:15;;;;;;;10.97;4.57;;;8.90;99.90;;;;;;5032466;28;20026;-85
2022/10/27 03:02:40;;;;;;;14.80;5.30;;;8.90;99.90;;;;;;5032452;28;20026;-85
2022/10/27 03:05:06;;;;;;;12.33;4.27;;;8.80;99.90;;;;;;5032791;28;20088;-85
2022/10/27 03:07:32;;;;;;;8.47;4.60;;;8.80;99.90;;;;;;5032734;28;20046;-85
2022/10/27 03:09:57;;;;;;;12.07;4.47;;;8.80;99.90;;;;;;5032410;28;20413;-85
2022/10/27 03:12:23;;;;;;;8.43;4.10;;;8.80;99.90;;;;;;5035337;28;20034;-85
2022/10/27 03:14:48;;;;;;;14.57;4.67;;;8.80;99.90;;;;;;5036211;28;20478;-85
2022/10/27 03:17:14;;;;;;;11.40;4.60;;;8.80;99.90;;;;;;5036042;28;20323;-85
2022/10/27 03:19:39;;;;;;;9.50;4.60;;;8.80;99.90;;;;;;5035978;28;20419;-85
2022/10/27 03:22:05;;;;;;;13.90;4.57;;;8.80;99.90;;;;;;5035877;28;20025;-85
2022/10/27 03:24:30;;;;;;;10.60;4.00;;;8.70;99.90;;;;;;5035628;28;20032;-85
2022/10/27 03:26:56;;;;;;;10.00;3.80;;;8.70;99.90;;;;;;5035852;28;20421;-85
2022/10/27 03:29:22;;;;;;;9.57;3.83;;;8.60;99.90;;;;;;5035784;28;20037;-85
2022/10/27 03:31:48;;;;;;;9.90;4.10;;;8.60;99.90;;;;;;5035390;28;20374;-85
2022/10/27 03:34:13;;;;;;;10.57;4.90;;;8.60;99.90;;;;;;5035795;28;20022;-85
2022/10/27 03:36:39;;;;;;;8.80;4.47;;;8.60;99.90;;;;;;5035529;28;20486;-85
2022/10/27 03:39:05;;;;;;;10.77;4.57;;;8.60;99.90;;;;;;5035446;28;20467;-85
2022/10/27 03:41:30;;;;;;;15.20;4.30;;;8.50;99.90;;;;;;5035236;28;20482;-85
2022/10/27 03:43:56;;;;;;;10.13;4.47;;;8.50;99.90;;;;;;5035418;28;20034;-85
2022/10/27 03:46:21;;;;;;;11.10;4.33;;;8.50;99.90;;;;;;5035325;28;20039;-85
2022/10/27 03:48:47;;;;;;;10.80;4.27;;;8.50;99.90;;;;;;5035678;28;20152;-85
2022/10/27 03:51:12;;;;;;;7.30;4.40;;;8.50;99.90;;;;;;5035696;28;20459;-85
2022/10/27 03:53:38;;;;;;;12.00;4.17;;;8.50;99.90;;;;;;5035160;28;20025;-85
2022/10/27 03:56:04;;;;;;;11.33;4.23;;;8.40;99.90;;;;;;5035146;28;20044;-85
2022/10/27 03:58:29;;;;;;;11.47;4.03;;;8.40;99.90;;;;;;5035630;28;20401;-85
2022/10/27 04:01:01;;;;;;;12.37;4.20;;;8.40;99.90;;;;;;5035211;28;20021;-85
2022/10/27 04:03:26;;;;;;;9.87;4.17;;;8.40;99.90;;;;;;5035081;28;20032;-85
2022/10/27 04:05:52;;;;;;;9.80;3.93;;;8.40;99.90;;;;;;5034974;28;20037;-85
2022/10/27 04:08:17;;;;;;;14.00;4.10;;;8.30;99.90;;;;;;5035196;28;20331;-85
2022/10/27 04:10:44;;;;;;;13.03;4.63;;;8.30;99.90;;;;;;5034763;28;20379;-85
2022/10/27 04:13:10;;;;;;;9.70;5.60;;;8.30;99.90;;;;;;5035037;28;20040;-83
2022/10/27 04:15:35;;;;;;;14.60;5.93;;;8.30;99.90;;;;;;5034933;28;20045;-83
2022/10/27 04:18:01;;;;;;;15.97;6.10;;;8.30;99.90;;;;;;5034996;28;20100;-83
2022/10/27 04:20:27;;;;;;;12.57;6.20;;;8.20;99.90;;;;;;5034790;28;20022;-88
2022/10/27 04:22:57;;;;;;;15.53;6.60;;;8.20;99.90;;;;;;5030332;28;20025;-88
2022/10/27 04:25:23;;;;;;;16.03;6.80;;;8.20;99.90;;;;;;5015320;28;20378;-82
2022/10/27 04:27:49;;;;;;;13.33;6.17;;;8.20;99.90;;;;;;5014887;28;20034;-83
2022/10/27 04:30:15;;;;;;;13.47;5.83;;;8.20;99.90;;;;;;5014801;28;20480;-83
2022/10/27 04:32:40;;;;;;;10.90;5.40;;;8.10;99.90;;;;;;5014722;28;20087;-82
2022/10/27 04:35:07;;;;;;;15.80;4.67;;;8.10;99.90;;;;;;5015127;28;20041;-83
2022/10/27 04:37:33;;;;;;;8.30;4.40;;;8.00;99.90;;;;;;5014950;28;20208;-83
2022/10/27 04:39:59;;;;;;;12.03;5.00;;;8.00;99.90;;;;;;5014685;28;20133;-82
2022/10/27 04:42:24;;;;;;;12.83;6.10;;;8.00;99.90;;;;;;5014615;28;20060;-83
2022/10/27 04:44:50;;;;;;;12.23;6.17;;;8.00;99.90;;;;;;5014866;28;20026;-82
2022/10/27 04:47:15;;;;;;;13.87;6.13;;;7.90;99.90;;;;;;5014781;28;20026;-83
2022/10/27 04:49:41;;;;;;;12.50;6.77;;;7.90;99.90;;;;;;5014561;28;20111;-83
2022/10/27 04:52:06;;;;;;;13.90;8.33;;;7.90;99.90;;;;;;5015162;28;20367;-83
2022/10/27 04:54:32;;;;;;;16.63;7.13;;;7.90;99.90;;;;;;5014717;28;20059;-83
2022/10/27 04:56:57;;;;;;;17.73;8.20;;;8.00;99.90;;;;;;5014770;28;20101;-83
2022/10/27 04:59:23;;;;;;;16.50;7.77;;;8.00;99.90;;;;;;5014182;28;20049;-84
2022/10/27 05:01:49;;;;;;;15.27;6.27;;;8.00;99.90;;;;;;5014775;28;20355;-84
2022/10/27 05:04:14;;;;;;;11.50;6.53;;;8.00;99.90;;;;;;5014224;28;20026;-84
2022/10/27 05:06:40;;;;;;;16.13;6.37;;;8.00;99.90;;;;;;5014464;28;20080;-84
2022/10/27 05:09:05;;;;;;;11.87;5.87;;;8.00;99.90;;;;;;5030281;28;20091;-83
2022/10/27 05:11:31;;;;;;;10.17;5.30;;;8.00;99.90;;;;;;5034253;28;20411;-83
2022/10/27 05:13:56;;;;;;;12.10;4.70;;;8.00;99.90;;;;;;5034191;28;20056;-83
2022/10/27 05:16:22;;;;;;;10.07;4.33;;;7.90;99.90;;;;;;5033805;28;20363;-84
2022/10/27 05:18:47;;;;;;;18.90;4.40;;;7.90;99.90;;;;;;5034127;28;20370;-83
2022/10/27 05:21:13;;;;;;;5.87;3.60;;;7.80;99.90;;;;;;5033989;28;20036;-83
2022/10/27 05:23:39;;;;;;;9.43;4.40;;;7.80;99.90;;;;;;5034096;28;20117;-83
2022/10/27 05:26:05;;;;;;;10.00;4.77;;;7.70;99.90;;;;;;5049119;28;20029;-84
2022/10/27 05:28:30;;;;;;;10.40;4.50;;;7.70;99.90;;;;;;5034061;28;20055;-84
2022/10/27 05:30:57;;;;;;;10.00;4.17;;;7.70;99.90;;;;;;5034129;28;20362;-84
2022/10/27 05:33:24;;;;;;;9.90;4.57;;;7.60;99.90;;;;;;5033253;28;20022;-84
2022/10/27 05:35:49;;;;;;;11.43;4.13;;;7.60;99.90;;;;;;5033594;28;20033;-83
2022/10/27 05:38:15;;;;;;;12.77;4.30;;;7.60;99.90;;;;;;5033530;28;20383;-83
2022/10/27 05:40:41;;;;;;;11.13;4.30;;;7.60;99.90;;;;;;5033187;28;20052;-83
2022/10/27 05:43:08;;;;;;;12.60;4.40;;;7.60;99.90;;;;;;5031930;28;20140;-83
2022/10/27 05:45:33;;;;;;;17.83;5.33;;;7.60;99.90;;;;;;5032961;28;20479;-83
2022/10/27 05:48:04;;;;;;;13.23;4.03;;;7.50;99.90;;;;;;5033135;28;20029;-83
2022/10/27 05:50:30;;;;;;;13.57;4.00;;;7.50;99.90;;;;;;5033169;28;20061;-84
2022/10/27 05:52:56;;;;;;;10.50;3.73;;;7.50;99.90;;;;;;5033101;28;20105;-84
2022/10/27 05:55:23;;;;;;;9.10;3.80;;;7.50;99.90;;;;;;5030133;28;20092;-89
2022/10/27 05:58:00;;;;;;;16.17;4.13;;;7.50;99.90;;;;;;5029129;28;20044;-89
2022/10/27 06:00:31;;;;;;;10.27;3.53;;;7.50;99.90;;;;;;5028569;28;20044;-88
2022/10/27 06:02:58;;;;;;;10.43;4.13;;;7.50;99.90;;;;;;5029203;28;20070;-89
2022/10/27 06:05:28;;;;;;;10.70;4.00;;;7.50;99.90;;;;;;5027907;28;20040;-88
2022/10/27 06:07:53;;;;;;;14.87;4.10;;;7.40;99.90;;;;;;5028469;28;20037;-88
2022/10/27 06:10:19;;;;;;;10.73;4.17;;;7.40;99.90;;;;;;5028808;28;20044;-88
2022/10/27 06:12:45;;;;;;;13.73;4.67;;;7.50;99.90;;;;;;5028521;28;20502;-88
2022/10/27 06:15:11;;;;;;;9.40;4.67;;;7.50;99.90;;;;;;5025813;28;20026;-88
2022/10/27 06:17:36;;;;;;;18.40;6.17;;;7.50;99.90;;;;;;5028412;28;20045;-88
2022/10/27 06:20:03;;;;;;;10.60;4.37;;;7.50;99.90;;;;;;5028880;28;20130;-88
2022/10/27 06:22:36;;;;;;;9.73;4.50;;;7.50;99.90;;;;;;5028252;28;20037;-89
2022/10/27 06:25:01;;;;;;;11.90;5.00;;;7.50;99.90;;;;;;5028660;28;20041;-89
2022/10/27 06:27:29;;;;;;;11.10;5.70;;;7.60;99.90;;;;;;5028952;28;20029;-89
2022/10/27 06:29:54;;;;;;;10.57;5.13;;;7.60;99.90;;;;;;5029011;28;20021;-88
2022/10/27 06:32:20;;;;;;;11.23;4.47;;;7.60;99.90;;;;;;5028600;28;20096;-89
2022/10/27 06:34:45;;;;;;;13.03;4.87;;;7.60;99.90;;;;;;5029029;28;20029;-89
2022/10/27 06:37:11;;;;;;;13.17;4.20;;;7.60;99.90;;;;;;5027949;28;20025;-89
2022/10/27 06:39:37;;;;;;;11.17;4.47;;;7.60;99.90;;;;;;5029042;28;20024;-89
2022/10/27 06:42:02;;;;;;;10.33;4.97;;;7.70;99.90;;;;;;5028637;28;20039;-88
2022/10/27 06:44:28;;;;;;;14.47;4.93;;;7.70;99.90;;;;;;5028651;28;20025;-89
2022/10/27 06:46:53;;;;;;;14.40;5.80;;;7.80;99.90;;;;;;5030131;28;20088;-88
2022/10/27 06:49:19;;;;;;;12.83;5.50;;;7.80;99.90;;;;;;5033532;28;20433;-89
2022/10/27 06:51:44;;;;;;;18.07;7.00;;;7.90;99.90;;;;;;5032726;28;20021;-89
2022/10/27 06:54:10;;;;;;;10.23;5.30;;;8.00;99.90;;;;;;5031988;28;20026;-88
2022/10/27 06:56:35;;;;;;;16.20;6.60;;;8.00;99.90;;;;;;5029978;28;20079;-88
2022/10/27 06:59:01;;;;;;;14.80;6.60;;;8.00;99.90;;;;;;5033009;28;20481;-88
2022/10/27 07:01:27;;;;;;;16.93;6.33;;;8.10;99.90;;;;;;5033024;28;20927;-88
2022/10/27 07:03:52;;;;;;;11.90;6.23;;;8.20;99.90;;;;;;5032582;28;20033;-89
2022/10/27 07:06:18;;;;;;;14.70;6.17;;;8.20;99.90;;;;;;5031327;28;20041;-89
2022/10/27 07:08:44;;;;;;;14.13;5.70;;;8.20;99.90;;;;;;5033003;28;20033;-88
2022/10/27 07:11:09;;;;;;;9.90;6.00;;;8.30;99.90;;;;;;5032884;28;20087;-89
2022/10/27 07:13:35;;;;;;;13.50;5.57;;;8.40;99.90;;;;;;5031035;28;20085;-88
2022/10/27 07:16:01;;;;;;;14.23;5.63;;;8.40;99.90;;;;;;5030704;28;20050;-88
2022/10/27 07:18:26;;;;;;;13.23;5.93;;;8.50;99.90;;;;;;5032284;28;20420;-88
2022/10/27 07:20:52;;;;;;;14.63;5.40;;;8.60;99.90;;;;;;5030963;28;20037;-87
2022/10/27 07:23:18;;;;;;;12.57;5.00;;;8.60;99.90;;;;;;5031407;28;20021;-88
2022/10/27 07:25:48;;;;;;;15.30;5.23;;;8.70;99.90;;;;;;5030482;28;20108;-87
2022/10/27 07:28:13;;;;;;;12.87;4.40;;;8.80;99.90;;;;;;5031003;28;20336;-88
2022/10/27 07:30:43;;;;;;;12.80;4.00;;;8.90;99.90;;;;;;5030730;28;20029;-88
2022/10/27 07:33:09;;;;;;;12.10;5.07;;;9.00;99.90;;;;;;5031264;28;20040;-88
2022/10/27 07:35:35;;;;;;;12.37;4.93;;;9.10;99.90;;;;;;5029713;28;20048;-88
2022/10/27 07:38:00;;;;;;;13.67;5.50;;;9.20;99.90;;;;;;5030218;28;20029;-88
2022/10/27 07:40:26;;;;;;;13.67;4.87;;;9.30;99.90;;;;;;5029767;28;20359;-88
2022/10/27 07:42:55;;;;;;;17.30;6.13;;;9.40;99.90;;;;;;5030864;28;20443;-88
2022/10/27 07:45:23;;;;;;;13.07;5.80;;;9.50;99.90;;;;;;5028651;28;20651;-87
2022/10/27 07:47:51;;;;;;;11.60;6.00;;;9.70;99.90;;;;;;5028009;28;20521;-88
2022/10/27 07:50:19;;;;;;;13.90;6.67;;;9.90;99.90;;;;;;5028356;28;20124;-88
2022/10/27 07:52:46;;;;;;;17.17;6.60;;;10.00;99.90;;;;;;5028947;28;20358;-89
2022/10/27 07:55:13;;;;;;;13.80;6.90;;;10.20;99.90;;;;;;5027855;28;20033;-88
2022/10/27 07:57:40;;;;;;;15.60;8.27;;;10.40;99.90;;;;;;5030831;28;20025;-88
2022/10/27 08:00:08;;;;;;;19.43;8.73;;;10.60;99.90;;;;;;5030398;28;20053;-88
2022/10/27 08:02:34;;;;;;;19.38;7.80;;;10.70;99.90;;;;;;5029103;28;20017;-88
2022/10/27 08:05:00;;;;;;;15.50;7.43;;;10.90;99.90;;;;;;5030054;28;20283;-88
2022/10/27 08:07:26;;;;;;;23.80;6.90;;;11.10;99.90;;;;;;5033306;28;20171;-88
2022/10/27 08:09:51;;;;;;;19.67;7.10;;;11.30;99.90;;;;;;5033186;28;20128;-88
2022/10/27 08:12:17;;;;;;;13.00;6.45;;;11.50;99.90;;;;;;5029664;28;20029;-88
2022/10/27 08:14:42;;;;;;;15.30;7.30;;;11.70;99.90;;;;;;5031618;28;20044;-88
2022/10/27 08:17:08;;;;;;;20.05;8.57;;;11.90;99.90;;;;;;5031529;28;20110;-88
2022/10/27 08:19:36;;;;;;;16.70;7.55;;;12.10;99.90;;;;;;5031505;28;20065;-88
2022/10/27 08:22:02;;;;;;;21.52;12.07;;;12.30;99.90;;;;;;5031575;28;20034;-88
2022/10/27 08:24:27;;;;;;;18.33;8.27;;;12.50;99.90;;;;;;5031171;28;20028;-88
2022/10/27 08:26:53;;;;;;;13.88;5.45;;;12.70;99.90;;;;;;5031484;28;20041;-88
2022/10/27 08:29:18;;;;;;;13.63;4.43;;;12.80;99.90;;;;;;5030617;28;20099;-88
2022/10/27 08:31:44;;;;;;;14.15;4.50;;;13.00;99.90;;;;;;5031113;28;20041;-89
2022/10/27 08:34:09;;;;;;;16.80;5.13;;;13.20;99.90;;;;;;5031543;28;20082;-88
2022/10/27 08:36:38;;;;;;;34.67;20.15;;;13.40;99.90;;;;;;5031061;28;20029;-88
2022/10/27 08:39:08;;;;;;;22.38;8.85;;;13.60;99.90;;;;;;5031177;28;20727;-89
2022/10/27 08:42:02;;;;;;;16.75;5.22;;;13.70;99.90;;;;;;5029668;28;20045;-89
2022/10/27 08:44:40;;;;;;;24.08;5.68;;;13.90;99.90;;;;;;5029655;28;20021;-89
2022/10/27 08:47:12;;;;;;;22.83;4.20;;;14.10;99.90;;;;;;5027806;28;20036;-89
2022/10/27 08:49:48;;;;;;;13.10;3.63;;;14.20;99.90;;;;;;5029897;28;20159;-89
2022/10/27 08:52:28;;;;;;;13.98;4.13;;;14.30;99.90;;;;;;5030074;28;20029;-89
2022/10/27 08:54:59;;;;;;;8.07;2.83;;;14.50;99.90;;;;;;5031432;28;20025;-89
2022/10/27 08:57:29;;;;;;;14.48;3.75;;;14.70;99.90;;;;;;5029142;28;20048;-89
2022/10/27 08:59:56;;;;;;;53.83;21.83;;;14.70;99.90;;;;;;5030039;28;20870;-89
2022/10/27 09:03:02;;;;;;;17.58;5.90;;;14.90;99.90;;;;;;5030838;28;20021;-90
2022/10/27 09:06:03;;;;;;;8.07;3.20;;;15.00;99.90;;;;;;5030380;28;20062;-89
2022/10/27 09:08:40;;;;;;;10.13;2.70;;;15.10;99.90;;;;;;5025533;28;20029;-89
2022/10/27 09:11:15;;;;;;;8.95;3.00;;;15.10;99.90;;;;;;5028898;28;20033;-89
2022/10/27 09:13:58;;;;;;;10.95;3.03;;;15.20;99.90;;;;;;5030797;28;20048;-89
2022/10/27 09:16:42;;;;;;;9.13;3.13;;;15.30;99.90;;;;;;5029421;28;20037;-89
2022/10/27 09:19:14;;;;;;;11.23;2.75;;;15.30;99.90;;;;;;5027361;28;20109;-89
2022/10/27 09:21:42;;;;;;;9.35;3.45;;;15.50;99.90;;;;;;5029202;28;20025;-89
2022/10/27 09:24:13;;;;;;;5.30;2.33;;;15.50;99.90;;;;;;5029981;28;20068;-89
2022/10/27 09:26:41;;;;;;;9.60;2.80;;;15.50;99.90;;;;;;5029776;28;20095;-89
2022/10/27 09:29:18;;;;;;;10.13;3.08;;;15.60;99.90;;;;;;5028040;28;20025;-89
2022/10/27 09:31:51;;;;;;;20.58;12.30;;;15.70;99.90;;;;;;5030118;28;20053;-89
2022/10/27 09:34:47;;;;;;;18.42;12.30;;;15.80;99.90;;;;;;5029546;28;20120;-89
2022/10/27 09:37:14;;;;;;;;;;;16.00;99.90;;;;;;5029572;28;20091;-90
2022/10/27 09:39:45;;;;;;;10.23;3.03;;;16.10;99.90;;;;;;5028263;28;19913;-89
2022/10/27 09:42:11;;;;;;;11.90;2.90;;;16.20;99.90;;;;;;5029571;28;20033;-89
2022/10/27 09:44:37;;;;;;;15.75;2.75;;;16.30;99.90;;;;;;5030067;28;20642;-89
2022/10/27 09:47:02;;;;;;;14.48;6.45;;;16.40;99.90;;;;;;5028449;28;20075;-90
2022/10/27 09:49:35;;;;;;;13.48;3.63;;;16.50;99.90;;;;;;5028847;28;20405;-90
2022/10/27 09:52:13;;;;;;;12.57;4.05;;;16.60;99.90;;;;;;5028310;28;20669;-91
2022/10/27 09:54:41;;;;;;;16.67;3.72;;;16.70;99.90;;;;;;5030032;28;20021;-90
2022/10/27 09:57:09;;;;;;;7.63;3.08;;;16.90;99.90;;;;;;5028457;28;20136;-91
2022/10/27 09:59:36;;;;;;;9.95;3.60;;;17.00;99.90;;;;;;5029119;28;20064;-91
2022/10/27 10:02:04;;;;;;;8.90;2.97;;;17.10;99.90;;;;;;5029212;28;20033;-91
2022/10/27 10:04:35;;;;;;;9.50;3.20;;;17.10;99.90;;;;;;5029847;28;20068;-90
2022/10/27 10:07:06;;;;;;;11.63;2.88;;;17.30;99.90;;;;;;5029734;28;20133;-91
2022/10/27 10:09:40;;;;;;;10.90;3.45;;;17.30;99.90;;;;;;5028479;28;20017;-90
2022/10/27 10:12:23;;;;;;;12.55;3.20;;;17.50;99.90;;;;;;5026893;28;20095;-90
2022/10/27 10:14:50;;;;;;;9.15;4.13;;;17.70;99.90;;;;;;5030023;28;21110;-91
2022/10/27 10:17:26;;;;;;;8.98;2.80;;;17.80;99.90;;;;;;5030622;28;20030;-91
2022/10/27 10:19:54;;;;;;;8.48;2.20;;;17.90;99.90;;;;;;5034081;28;20021;-90
2022/10/27 10:22:25;;;;;;;10.18;2.50;;;17.90;99.90;;;;;;5037034;28;20652;-91
2022/10/27 10:24:51;;;;;;;11.80;2.97;;;18.10;99.90;;;;;;5037361;28;20462;-91
2022/10/27 10:27:29;;;;;;;9.20;3.03;;;18.20;99.90;;;;;;5036803;28;20648;-91
2022/10/27 10:29:57;;;;;;;9.60;3.28;;;18.40;99.90;;;;;;5037229;28;20028;-91
2022/10/27 10:32:26;;;;;;;11.25;3.03;;;18.60;99.90;;;;;;5037067;28;20470;-91
2022/10/27 10:34:52;;;;;;;13.80;2.72;;;18.70;99.90;;;;;;5037238;28;20026;-91
2022/10/27 10:37:30;;;;;;;11.05;3.38;;;18.80;99.90;;;;;;5036778;28;20018;-91
2022/10/27 10:40:17;;;;;;;13.23;2.90;;;18.90;99.90;;;;;;5037051;28;20042;-84
2022/10/27 10:42:44;;;;;;;7.03;2.50;;;19.00;99.90;;;;;;5038130;28;20414;-83
2022/10/27 10:45:21;;;;;;;8.38;2.65;;;19.00;99.90;;;;;;5036328;28;20033;-86
2022/10/27 10:47:51;;;;;;;8.93;3.42;;;19.10;99.90;;;;;;5035631;28;20022;-87
2022/10/27 10:50:18;;;;;;;9.02;2.40;;;19.10;99.90;;;;;;5034815;28;20033;-87
2022/10/27 10:52:49;;;;;;;8.10;2.92;;;19.20;99.90;;;;;;5034049;28;20382;-87
2022/10/27 10:55:32;;;;;;;9.95;2.90;;;19.30;99.90;;;;;;5036123;28;20087;-87
2022/10/27 10:57:58;;;;;;;13.20;2.75;;;19.40;99.90;;;;;;5035827;28;20076;-86
2022/10/27 11:00:25;;;;;;;7.63;2.50;;;19.50;99.90;;;;;;5035831;28;20056;-87
2022/10/27 11:02:59;;;;;;;9.45;2.10;;;19.60;99.90;;;;;;5034727;28;20386;-86
2022/10/27 11:05:30;;;;;;;8.77;2.30;;;19.70;99.90;;;;;;5035186;28;20028;-87
2022/10/27 11:07:56;;;;;;;8.10;2.20;;;19.80;99.90;;;;;;5035705;28;20458;-86
2022/10/27 11:10:23;;;;;;;10.07;2.30;;;19.90;99.90;;;;;;5035881;28;20025;-87
2022/10/27 11:12:59;;;;;;;12.75;2.38;;;19.90;99.90;;;;;;5034901;28;20029;-87
2022/10/27 11:15:31;;;;;;;8.32;2.70;;;20.10;99.90;;;;;;5030189;28;20371;-86
2022/10/27 11:18:01;;;;;;;7.28;2.05;;;20.10;99.90;;;;;;5035650;28;20097;-87
2022/10/27 11:20:32;;;;;;;7.72;2.30;;;20.20;99.90;;;;;;5035684;28;20104;-86
2022/10/27 11:22:59;;;;;;;11.82;1.98;;;20.30;99.90;;;;;;5035929;28;20028;-87
2022/10/27 11:25:31;;;;;;;7.28;2.40;;;20.50;99.90;;;;;;5035591;28;20100;-86
2022/10/27 11:28:15;;;;;;;6.50;2.10;;;20.60;99.90;;;;;;5035827;28;20033;-87
2022/10/27 11:30:53;;;;;;;14.33;2.83;;;20.60;99.90;;;;;;5035509;28;20037;-87
2022/10/27 11:33:35;;;;;;;7.68;2.05;;;20.60;99.90;;;;;;5015045;28;20065;-87
2022/10/27 11:36:15;;;;;;;10.75;2.70;;;20.70;99.90;;;;;;5021662;28;20100;-87
2022/10/27 11:38:49;;;;;;;6.72;2.42;;;20.80;99.90;;;;;;5035461;28;20022;-87
2022/10/27 11:41:32;;;;;;;11.40;2.97;;;20.90;99.90;;;;;;5035554;28;20175;-87
2022/10/27 11:44:16;;;;;;;9.02;2.25;;;21.00;99.90;;;;;;5027173;28;20037;-87
2022/10/27 11:46:54;;;;;;;8.13;2.30;;;21.10;99.90;;;;;;5019764;28;20116;-80
2022/10/27 11:49:37;;;;;;;13.10;2.50;;;21.10;99.90;;;;;;5027599;28;20489;-79
2022/10/27 11:52:17;;;;;;;9.35;2.42;;;21.20;99.90;;;;;;5024792;28;20398;-80
2022/10/27 11:54:42;;;;;;;6.57;2.15;;;21.20;99.90;;;;;;5027195;28;20049;-80
2022/10/27 11:57:36;;;;;;;10.68;2.88;;;21.20;99.90;;;;;;5031616;28;20528;-79
2022/10/27 12:00:13;;;;;;;7.35;2.30;;;21.30;99.90;;;;;;5032859;28;20134;-80
2022/10/27 12:03:10;;;;;;;9.38;2.40;;;21.40;99.90;;;;;;5029197;28;20040;-80
2022/10/27 12:05:57;;;;;;;5.75;2.28;;;21.60;99.90;;;;;;5028461;28;20048;-80
2022/10/27 12:08:50;;;;;;;9.98;2.20;;;21.70;99.90;;;;;;5027894;28;20394;-81
2022/10/27 12:11:25;;;;;;;5.13;2.10;;;21.60;99.90;;;;;;5027280;28;20025;-81
2022/10/27 12:13:53;;;;;;;10.15;2.30;;;21.60;99.90;;;;;;5026434;28;20429;-80
2022/10/27 12:16:29;;;;;;;12.38;2.25;;;21.80;99.90;;;;;;5026931;28;20075;-80
2022/10/27 12:19:07;;;;;;;3.38;1.98;;;22.00;99.90;;;;;;5025153;28;20034;-80
2022/10/27 12:21:42;;;;;;;6.20;2.00;;;22.00;99.90;;;;;;5027394;28;20434;-80
2022/10/27 12:24:20;;;;;;;9.68;3.13;;;22.00;99.90;;;;;;5027807;28;20029;-80
2022/10/27 12:26:57;;;;;;;8.32;2.10;;;22.10;99.90;;;;;;5026221;28;20103;-80
2022/10/27 12:29:30;;;;;;;9.77;2.03;;;22.10;99.90;;;;;;5027499;28;20021;-80
2022/10/27 12:32:10;;;;;;;7.10;2.05;;;22.20;99.90;;;;;;5026177;28;20044;-80
2022/10/27 12:34:42;;;;;;;8.32;1.95;;;22.20;99.90;;;;;;5026127;28;20056;-80
2022/10/27 12:37:23;;;;;;;11.00;2.28;;;22.20;99.90;;;;;;5024861;28;20037;-80
2022/10/27 12:40:20;;;;;;;5.30;2.40;;;22.10;99.90;;;;;;5025536;28;20049;-80
2022/10/27 12:43:00;;;;;;;6.03;2.10;;;22.10;99.90;;;;;;5021022;28;20650;-80
2022/10/27 12:45:29;;;;;;;8.63;2.42;;;22.10;99.90;;;;;;5023014;28;20452;-80
2022/10/27 12:48:00;;;;;;;9.07;2.28;;;22.10;99.90;;;;;;5022891;28;20441;-79
2022/10/27 12:50:38;;;;;;;8.13;2.78;;;22.20;99.90;;;;;;5025587;28;20037;-80
2022/10/27 12:53:03;;;;;;;8.00;2.83;;;22.20;99.90;;;;;;5023018;28;20048;-80
2022/10/27 12:55:45;;;;;;;13.57;2.60;;;22.20;99.90;;;;;;5025773;28;20041;-80
2022/10/27 12:58:28;;;;;;;8.85;1.95;;;22.30;99.90;;;;;;5024371;28;20526;-80
2022/10/27 13:01:05;;;;;;;9.13;2.47;;;22.40;99.90;;;;;;5023441;28;20080;-80